Time;durP1;ratioP1;P1;durP2;ratioP2;P2;SDS_P1;SDS_P2;PMS_P1;PMS_P2;Temp;Humidity;BMP_temperature;BMP_pressure;BME280_temperature;BME280_humidity;BME280_pressure;Samples;Min_cycle;Max_cycle;Signal;HPM_P1;HPM_P2
2022/06/30 00:01:19;;;;;;;4.43;4.13;;;;;;;18.84;100.00;99828.34;4987021;28;20190;-77
2022/06/30 00:03:45;;;;;;;4.57;4.27;;;;;;;18.81;100.00;99826.75;4983936;28;20183;-76
2022/06/30 00:06:10;;;;;;;5.03;4.07;;;;;;;18.77;100.00;99825.19;4985132;28;20186;-77
2022/06/30 00:08:36;;;;;;;4.93;4.30;;;;;;;18.75;100.00;99819.19;4980842;28;20195;-77
2022/06/30 00:11:06;;;;;;;4.17;3.87;;;;;;;18.74;100.00;99827.97;4996818;28;20223;-77
2022/06/30 00:13:34;;;;;;;4.90;4.40;;;;;;;18.72;100.00;99821.94;4983770;28;20231;-76
2022/06/30 00:16:00;;;;;;;6.13;4.70;;;;;;;18.72;100.00;99824.56;4984912;28;20232;-77
2022/06/30 00:18:25;;;;;;;5.30;4.80;;;;;;;18.70;100.00;99829.91;4985889;28;20185;-77
2022/06/30 00:20:50;;;;;;;4.80;4.33;;;;;;;18.68;100.00;99826.50;4984574;28;20269;-77
2022/06/30 00:23:16;;;;;;;4.87;4.40;;;;;;;18.67;100.00;99823.97;4999671;28;20218;-77
2022/06/30 00:25:41;;;;;;;4.23;3.80;;;;;;;18.65;100.00;99823.19;4998258;28;20752;-77
2022/06/30 00:28:06;;;;;;;5.77;4.20;;;;;;;18.63;100.00;99825.03;5000717;28;20619;-76
2022/06/30 00:30:32;;;;;;;7.03;4.73;;;;;;;18.61;100.00;99824.28;4985555;28;20208;-75
2022/06/30 00:32:57;;;;;;;5.57;4.03;;;;;;;18.58;100.00;99822.66;4985058;28;20720;-76
2022/06/30 00:35:23;;;;;;;5.97;4.33;;;;;;;18.56;100.00;99819.25;4986149;28;20232;-76
2022/06/30 00:37:48;;;;;;;5.20;4.80;;;;;;;18.53;100.00;99816.78;4984528;28;20186;-76
2022/06/30 00:40:14;;;;;;;5.03;4.30;;;;;;;18.49;100.00;99815.22;4986804;28;20221;-76
2022/06/30 00:42:39;;;;;;;4.47;4.07;;;;;;;18.45;100.00;99814.53;4983628;28;20559;-76
2022/06/30 00:45:05;;;;;;;4.87;4.33;;;;;;;18.42;100.00;99812.06;4994784;28;20208;-75
2022/06/30 00:47:30;;;;;;;4.53;4.13;;;;;;;18.39;100.00;99809.59;4983015;28;20186;-76
2022/06/30 00:49:56;;;;;;;4.87;4.37;;;;;;;18.38;100.00;99797.41;4985523;28;20209;-76
2022/06/30 00:52:24;;;;;;;5.23;4.07;;;;;;;18.36;100.00;99801.91;4984966;28;20263;-76
2022/06/30 00:54:52;;;;;;;5.47;3.70;;;;;;;18.34;100.00;99798.53;4983823;28;20202;-77
2022/06/30 00:57:20;;;;;;;5.07;4.60;;;;;;;18.30;100.00;99792.59;4974149;28;20543;-77
2022/06/30 00:59:48;;;;;;;4.43;4.13;;;;;;;18.27;100.00;99790.13;4983396;28;20757;-76
2022/06/30 01:02:15;;;;;;;4.50;3.83;;;;;;;18.23;100.00;99785.94;4999006;28;20246;-77
2022/06/30 01:04:41;;;;;;;4.47;4.17;;;;;;;18.18;100.00;99788.78;4984673;28;20234;-76
2022/06/30 01:07:08;;;;;;;4.73;4.40;;;;;;;18.15;100.00;99791.56;4982812;28;20194;-76
2022/06/30 01:15:02;;;;;;;4.77;4.20;;;;;;;18.09;100.00;99799.69;4984011;28;20212;-77
2022/06/30 01:17:27;;;;;;;4.47;4.07;;;;;;;18.07;100.00;99797.16;5000706;28;20186;-74
2022/06/30 01:19:54;;;;;;;5.43;4.60;;;;;;;18.04;100.00;99797.28;5001088;28;21032;-76
2022/06/30 01:22:19;;;;;;;4.43;4.03;;;;;;;18.03;100.00;99807.84;4983785;28;20696;-75
2022/06/30 01:24:45;;;;;;;5.17;4.67;;;;;;;17.98;100.00;99800.22;4998931;28;20238;-76
2022/06/30 01:27:11;;;;;;;4.73;4.40;;;;;;;17.94;100.00;99796.84;4985365;28;20189;-77
2022/06/30 01:29:37;;;;;;;4.90;4.50;;;;;;;17.90;100.00;99803.19;4986416;28;20259;-76
2022/06/30 01:32:02;;;;;;;5.57;4.60;;;;;;;17.87;100.00;99803.31;5000161;28;20649;-76
2022/06/30 01:34:28;;;;;;;5.13;4.40;;;;;;;17.82;100.00;99806.16;4980372;28;20751;-76
2022/06/30 01:36:53;;;;;;;4.77;4.37;;;;;;;17.79;100.00;99810.66;4997717;28;20184;-77
2022/06/30 01:39:18;;;;;;;4.50;4.10;;;;;;;17.76;100.00;99811.66;5003051;28;20188;-76
2022/06/30 01:41:44;;;;;;;5.10;4.70;;;;;;;17.72;100.00;99810.09;4999774;28;20187;-75
2022/06/30 01:44:11;;;;;;;5.27;4.73;;;;;;;17.70;100.00;99806.69;4986168;28;20200;-76
2022/06/30 01:46:37;;;;;;;5.37;4.87;;;;;;;17.70;100.00;99805.88;4985499;28;20531;-76
2022/06/30 01:49:02;;;;;;;5.93;4.80;;;;;;;17.67;100.00;99792.00;4987603;28;20201;-75
2022/06/30 01:51:27;;;;;;;6.03;4.63;;;;;;;17.64;100.00;99792.13;5003107;28;20900;-77
2022/06/30 01:53:53;;;;;;;8.67;5.00;;;;;;;17.62;100.00;99790.53;4986065;28;20216;-76
2022/06/30 01:56:19;;;;;;;6.00;5.40;;;;;;;17.58;100.00;99789.81;4986680;28;22475;-76
2022/06/30 01:58:44;;;;;;;5.80;5.30;;;;;;;17.55;100.00;99787.34;4985427;28;20189;-75
2022/06/30 02:01:09;;;;;;;5.80;5.07;;;;;;;17.55;100.00;99789.09;4990405;28;20192;-75
2022/06/30 02:03:35;;;;;;;6.43;4.90;;;;;;;17.54;100.00;99784.81;4985273;28;20181;-76
2022/06/30 02:06:00;;;;;;;6.47;5.70;;;;;;;17.54;100.00;99782.19;4998570;28;20758;-78
2022/06/30 02:08:26;;;;;;;5.07;4.70;;;;;;;17.51;100.00;99788.41;4984648;28;20741;-75
2022/06/30 02:10:51;;;;;;;4.60;4.30;;;;;;;17.47;100.00;99784.25;4986721;28;20201;-75
2022/06/30 02:13:16;;;;;;;4.80;4.40;;;;;;;17.45;100.00;99784.28;4986980;28;20274;-75
2022/06/30 02:15:42;;;;;;;4.67;4.37;;;;;;;17.43;100.00;99786.13;5001073;28;20244;-76
2022/06/30 02:18:08;;;;;;;5.07;4.67;;;;;;;17.40;100.00;99795.88;4984061;28;20185;-75
2022/06/30 02:20:35;;;;;;;4.67;4.27;;;;;;;17.37;100.00;99783.81;4979114;28;20189;-76
2022/06/30 02:23:03;;;;;;;5.93;4.60;;;;;;;17.35;100.00;99796.94;4987993;28;20189;-75
2022/06/30 02:25:31;;;;;;;5.77;5.23;;;;;;;17.34;100.00;99790.00;5004076;28;21055;-76
2022/06/30 02:27:57;;;;;;;4.87;4.40;;;;;;;17.33;100.00;99790.91;4984420;28;20189;-76
2022/06/30 02:30:24;;;;;;;6.57;4.53;;;;;;;17.32;100.00;99793.63;4988461;28;20367;-75
2022/06/30 02:32:49;;;;;;;6.13;4.80;;;;;;;17.30;100.00;99792.84;4986053;28;20272;-75
2022/06/30 02:35:15;;;;;;;5.50;4.10;;;;;;;17.28;100.00;99792.06;4989023;28;20748;-76
2022/06/30 02:37:41;;;;;;;6.90;4.37;;;;;;;17.27;100.00;99793.84;4988392;28;20197;-74
2022/06/30 02:40:08;;;;;;;6.00;4.10;;;;;;;17.25;100.00;99789.56;4987668;28;20185;-74
2022/06/30 02:42:33;;;;;;;4.93;4.47;;;;;;;17.24;100.00;99790.50;5002862;28;20294;-75
2022/06/30 02:44:59;;;;;;;5.13;4.67;;;;;;;17.23;100.00;99800.09;4991920;28;20805;-75
2022/06/30 02:47:35;;;;;;;5.30;4.40;;;;;;;17.23;100.00;99788.81;4985963;28;20181;-76
2022/06/30 02:50:05;;;;;;;5.97;4.83;;;;;;;17.22;100.00;99787.94;4988904;28;20580;-76
2022/06/30 02:52:32;;;;;;;6.90;4.77;;;;;;;17.20;100.00;99782.81;4987992;28;20181;-74
2022/06/30 02:54:58;;;;;;;6.17;4.83;;;;;;;17.19;100.00;99791.56;4990016;28;20267;-77
2022/06/30 02:57:24;;;;;;;4.77;4.37;;;;;;;17.15;100.00;99789.16;4987053;28;20204;-75
2022/06/30 02:59:49;;;;;;;4.97;4.57;;;;;;;17.12;100.00;99789.28;5001097;28;20189;-75
2022/06/30 03:02:15;;;;;;;4.50;4.20;;;;;;;17.08;100.00;99796.41;4987338;28;20194;-76
2022/06/30 03:04:40;;;;;;;4.97;4.43;;;;;;;17.05;100.00;99800.00;4988557;28;20210;-76
2022/06/30 03:07:06;;;;;;;4.60;4.20;;;;;;;17.01;100.00;99795.84;4988324;28;20181;-76
2022/06/30 03:09:31;;;;;;;7.67;4.87;;;;;;;16.97;100.00;99796.88;5001789;28;20247;-76
2022/06/30 03:11:56;;;;;;;7.20;4.73;;;;;;;16.91;100.00;99795.34;4986302;28;20194;-75
2022/06/30 03:14:22;;;;;;;6.03;4.90;;;;;;;16.88;100.00;99800.72;4985563;28;20676;-77
2022/06/30 03:16:47;;;;;;;5.40;4.50;;;;;;;16.87;100.00;99803.38;4986184;28;20236;-76
2022/06/30 03:19:13;;;;;;;6.20;4.40;;;;;;;16.83;100.00;99805.28;4998085;28;20637;-75
2022/06/30 03:21:39;;;;;;;4.97;4.00;;;;;;;16.84;100.00;99800.91;4984348;28;20190;-76
2022/06/30 03:24:05;;;;;;;5.50;4.17;;;;;;;16.86;100.00;99802.53;4998757;28;20575;-76
2022/06/30 03:26:30;;;;;;;7.07;4.87;;;;;;;16.89;100.00;99794.56;4991173;28;20193;-75
2022/06/30 03:28:55;;;;;;;5.50;5.00;;;;;;;16.92;100.00;99802.28;4985199;28;20572;-76
2022/06/30 03:31:21;;;;;;;5.20;4.77;;;;;;;16.98;100.00;99802.94;5004184;28;20224;-76
2022/06/30 03:33:46;;;;;;;5.30;4.90;;;;;;;16.99;100.00;99813.34;5002503;28;20196;-75
2022/06/30 03:36:11;;;;;;;5.00;4.70;;;;;;;17.00;100.00;99806.34;4986706;28;20721;-76
2022/06/30 03:38:37;;;;;;;4.97;4.57;;;;;;;17.00;100.00;99815.06;4981008;28;20194;-77
2022/06/30 03:41:02;;;;;;;4.77;4.37;;;;;;;17.04;100.00;99811.38;4981060;28;20197;-76
2022/06/30 03:43:30;;;;;;;4.80;4.40;;;;;;;17.11;100.00;99816.34;5005331;28;20200;-75
2022/06/30 03:45:55;;;;;;;5.00;4.60;;;;;;;17.14;100.00;99816.22;4990859;28;20205;-75
2022/06/30 03:48:21;;;;;;;5.47;4.97;;;;;;;17.12;100.00;99821.50;4986614;28;20831;-76
2022/06/30 03:50:46;;;;;;;5.13;4.73;;;;;;;17.09;100.00;99819.03;4985615;28;20311;-76
2022/06/30 03:53:12;;;;;;;5.57;5.10;;;;;;;17.10;100.00;99810.25;4988161;28;20320;-76
2022/06/30 03:55:39;;;;;;;6.30;4.70;;;;;;;17.17;100.00;99805.59;5004855;28;20216;-76
2022/06/30 03:58:08;;;;;;;5.27;4.87;;;;;;;17.45;100.00;99802.59;4997423;28;20194;-78
2022/06/30 04:00:35;;;;;;;5.00;4.50;;;;;;;18.17;100.00;99797.56;4986100;28;20193;-76
2022/06/30 04:03:01;;;;;;;4.07;3.77;;;;;;;18.91;100.00;99800.03;4985666;28;20247;-75
2022/06/30 04:05:27;;;;;;;4.10;3.80;;;;;;;19.53;100.00;99809.97;4985085;28;20726;-76
2022/06/30 04:07:52;;;;;;;3.47;3.23;;;;;;;19.75;100.00;99805.22;4988545;28;20411;-77
2022/06/30 04:10:18;;;;;;;4.00;3.20;;;;;;;19.68;100.00;99809.13;4989592;28;20213;-75
2022/06/30 04:12:43;;;;;;;3.97;3.57;;;;;;;19.52;100.00;99816.13;5004553;28;20234;-77
2022/06/30 04:15:10;;;;;;;3.70;3.47;;;;;;;19.32;100.00;99812.78;4987902;28;20210;-77
2022/06/30 04:17:35;;;;;;;4.27;3.83;;;;;;;19.16;100.00;99808.34;4985088;28;20283;-78
2022/06/30 04:20:02;;;;;;;3.37;3.07;;;;;;;19.17;100.00;99814.47;4987762;28;20279;-75
2022/06/30 04:22:27;;;;;;;4.33;3.90;;;;;;;19.25;100.00;99814.91;4986307;28;20210;-76
2022/06/30 04:24:53;;;;;;;3.97;3.10;;;;;;;19.84;100.00;99814.38;4985502;28;20207;-76
2022/06/30 04:27:18;;;;;;;3.87;3.50;;;;;;;20.19;100.00;99810.75;5000647;28;20263;-77
2022/06/30 04:29:44;;;;;;;5.00;3.33;;;;;;;20.14;100.00;99803.09;4992482;28;20195;-77
2022/06/30 04:34:54;;;;;;;3.67;3.47;;;;;;;19.94;100.00;99810.34;4982565;28;20223;-77
2022/06/30 04:37:19;;;;;;;3.93;3.63;;;;;;;19.88;100.00;99801.97;4984465;28;20783;-76
2022/06/30 04:39:45;;;;;;;4.10;3.70;;;;;;;19.80;100.00;99800.56;4984460;28;20234;-77
2022/06/30 04:42:10;;;;;;;3.90;3.60;;;;;;;19.94;100.00;99804.22;5005041;28;20196;-76
2022/06/30 04:44:35;;;;;;;3.73;3.43;;;;;;;20.91;100.00;99807.50;5004627;28;21110;-76
2022/06/30 04:47:01;;;;;;;3.90;3.50;;;;;;;22.44;100.00;99800.59;4984460;28;20628;-77
2022/06/30 04:49:26;;;;;;;4.07;3.77;;;;;;;23.85;100.00;99797.97;4985006;28;20200;-78
2022/06/30 04:51:52;;;;;;;3.63;3.07;;;;;;;25.06;96.79;99794.34;4988445;28;20669;-77
2022/06/30 04:54:17;;;;;;;3.10;2.90;;;;;;;26.09;92.82;99787.94;4994279;28;20627;-76
2022/06/30 04:56:43;;;;;;;3.33;3.03;;;;;;;27.10;89.34;99784.88;5001002;28;20201;-77
2022/06/30 04:59:08;;;;;;;3.07;2.87;;;;;;;27.97;87.08;99785.28;4989426;28;20287;-78
2022/06/30 05:01:34;;;;;;;4.43;2.80;;;;;;;28.76;84.71;99780.78;4991734;28;20243;-77
2022/06/30 05:03:59;;;;;;;2.80;2.60;;;;;;;29.49;82.64;99787.25;4986091;28;20205;-78
2022/06/30 05:06:24;;;;;;;3.17;2.87;;;;;;;30.11;80.50;99779.38;4984989;28;20641;-78
2022/06/30 05:08:50;;;;;;;3.90;2.77;;;;;;;30.69;78.80;99782.50;4993808;28;20238;-77
2022/06/30 05:11:15;;;;;;;3.97;2.73;;;;;;;31.13;78.20;99778.09;5000664;28;20204;-77
2022/06/30 05:13:41;;;;;;;3.10;2.80;;;;;;;31.60;76.72;99769.56;4990191;28;20181;-77
2022/06/30 05:16:06;;;;;;;4.33;2.80;;;;;;;32.03;76.13;99782.88;4983229;28;20197;-78
2022/06/30 05:18:31;;;;;;;2.73;2.53;;;;;;;32.46;74.74;99772.00;4985113;28;20220;-77
2022/06/30 05:21:00;;;;;;;2.88;2.65;;;;;;;32.89;73.78;99770.94;4979918;28;20199;-78
2022/06/30 05:23:25;;;;;;;2.17;2.03;;;;;;;33.32;72.34;99765.22;4986547;28;20251;-77
2022/06/30 05:28:34;;;;;;;2.55;2.38;;;;;;;34.04;69.86;99765.00;4985100;28;20735;-77
2022/06/30 05:31:00;;;;;;;3.20;2.88;;;;;;;34.34;68.87;99765.06;4991602;28;20208;-78
2022/06/30 05:33:25;;;;;;;4.25;3.80;;;;;;;34.33;66.31;99768.78;4998694;28;20559;-77
2022/06/30 05:35:53;;;;;;;6.32;3.72;;;;;;;34.51;65.71;99770.31;5003650;28;20213;-78
2022/06/30 05:38:19;;;;;;;4.63;3.30;;;;;;;34.51;64.81;99756.88;4978048;28;20932;-78
2022/06/30 05:40:47;;;;;;;3.33;2.70;;;;;;;34.52;64.53;99761.25;4978212;28;20208;-77
2022/06/30 05:43:14;;;;;;;3.67;3.03;;;;;;;34.71;64.93;99759.03;4978322;28;20189;-79
2022/06/30 05:45:50;;;;;;;3.90;3.05;;;;;;;34.81;64.05;99756.91;4981656;28;20305;-78
2022/06/30 05:48:16;;;;;;;4.78;3.20;;;;;;;34.84;63.65;99753.00;4980634;28;20193;-77
2022/06/30 05:50:41;;;;;;;3.38;2.88;;;;;;;34.97;63.17;99755.06;4982658;28;20635;-76
2022/06/30 05:53:07;;;;;;;3.63;3.33;;;;;;;35.13;63.10;99752.19;4982028;28;20271;-78
2022/06/30 05:55:32;;;;;;;2.88;2.42;;;;;;;35.53;62.82;99757.22;4993905;28;20267;-77
2022/06/30 05:58:01;;;;;;;2.47;2.38;;;;;;;36.01;62.39;99760.19;4995778;28;20259;-77
2022/06/30 06:00:28;;;;;;;2.53;2.33;;;;;;;36.34;62.03;99753.41;4998715;28;20207;-77
2022/06/30 06:02:53;;;;;;;3.33;3.00;;;;;;;36.48;61.02;99759.75;4985600;28;20189;-76
2022/06/30 06:05:19;;;;;;;2.67;2.47;;;;;;;36.55;60.85;99749.84;4985888;28;20255;-76
2022/06/30 06:07:44;;;;;;;4.55;2.83;;;;;;;36.44;59.88;99745.00;4984549;28;20197;-76
2022/06/30 06:10:10;;;;;;;2.70;2.50;;;;;;;36.51;59.75;99747.75;4986738;28;20208;-76
2022/06/30 06:12:36;;;;;;;3.65;3.10;;;;;;;36.45;59.93;99739.41;4983767;28;20308;-76
2022/06/30 06:15:02;;;;;;;2.58;2.40;;;;;;;36.58;60.05;99745.91;4988514;28;20204;-76
2022/06/30 06:17:29;;;;;;;3.70;3.00;;;;;;;36.69;59.99;99747.22;4988638;28;20188;-77
2022/06/30 06:19:54;;;;;;;2.50;2.30;;;;;;;37.14;60.22;99744.13;4983361;28;20188;-77
2022/06/30 06:22:20;;;;;;;2.75;2.63;;;;;;;37.37;59.47;99749.19;4996825;28;20173;-76
2022/06/30 06:24:45;;;;;;;2.60;2.40;;;;;;;37.40;58.89;99747.97;5000619;28;20669;-77
2022/06/30 06:27:10;;;;;;;6.63;2.53;;;;;;;37.57;58.92;99746.59;4988489;28;20561;-76
2022/06/30 06:29:36;;;;;;;3.90;2.83;;;;;;;37.55;58.74;99737.88;4987575;28;20212;-75
2022/06/30 06:32:01;;;;;;;3.75;2.53;;;;;;;37.54;58.80;99741.59;4985684;28;20356;-78
2022/06/30 06:34:26;;;;;;;2.70;2.50;;;;;;;37.77;58.58;99749.31;5001909;28;20248;-78
2022/06/30 06:36:52;;;;;;;2.90;2.30;;;;;;;38.02;58.87;99742.50;4989553;28;20274;-78
2022/06/30 06:39:17;;;;;;;2.70;2.50;;;;;;;38.26;58.59;99747.25;4989801;28;20844;-77
2022/06/30 06:41:43;;;;;;;3.42;2.45;;;;;;;38.20;58.00;99739.97;4988187;28;20189;-77
2022/06/30 06:44:08;;;;;;;4.35;2.60;;;;;;;37.88;57.95;99731.69;4989932;28;20700;-77
2022/06/30 06:46:35;;;;;;;3.17;2.60;;;;;;;37.78;58.09;99733.94;4987311;28;20180;-77
2022/06/30 06:49:03;;;;;;;3.30;3.00;;;;;;;37.46;58.28;99733.69;4987053;28;20185;-78
2022/06/30 06:51:29;;;;;;;2.47;2.28;;;;;;;37.57;58.87;99738.50;5004435;28;20201;-76
2022/06/30 06:53:56;;;;;;;2.67;2.38;;;;;;;37.63;59.12;99740.34;4987154;28;20181;-75
2022/06/30 06:56:21;;;;;;;3.35;2.58;;;;;;;37.57;59.05;99740.34;4989330;28;20578;-76
2022/06/30 06:58:48;;;;;;;2.60;2.40;;;;;;;37.40;59.37;99745.28;4993173;28;20284;-75
2022/06/30 07:01:14;;;;;;;3.50;2.75;;;;;;;37.22;59.33;99741.28;4989494;28;20189;-76
2022/06/30 07:03:39;;;;;;;7.55;3.42;;;;;;;36.87;58.95;99742.16;4987955;28;20558;-76
2022/06/30 07:06:06;;;;;;;2.80;2.60;;;;;;;36.75;59.76;99744.56;4987317;28;20649;-76
2022/06/30 07:08:31;;;;;;;3.03;2.70;;;;;;;36.60;59.76;99746.56;5000473;28;20188;-76
2022/06/30 07:10:57;;;;;;;3.47;2.72;;;;;;;36.48;60.10;99748.97;4986030;28;20209;-76
2022/06/30 07:13:24;;;;;;;3.15;2.75;;;;;;;36.58;59.39;99745.91;4985778;28;20197;-75
2022/06/30 07:15:49;;;;;;;4.03;2.45;;;;;;;36.46;59.58;99746.47;4988584;28;20326;-77
2022/06/30 07:18:15;;;;;;;5.65;2.97;;;;;;;36.36;59.56;99743.28;4984353;28;20645;-76
2022/06/30 07:20:42;;;;;;;9.00;3.40;;;;;;;35.92;59.87;99734.41;4989720;28;20279;-75
2022/06/30 07:23:07;;;;;;;7.53;3.38;;;;;;;35.83;60.14;99732.88;4986599;28;20187;-76
2022/06/30 07:25:33;;;;;;;4.75;2.78;;;;;;;35.79;59.72;99737.78;4987838;28;20758;-76
2022/06/30 07:27:58;;;;;;;3.05;2.75;;;;;;;35.73;59.92;99738.56;4979862;28;20261;-75
2022/06/30 07:30:25;;;;;;;3.03;2.83;;;;;;;35.74;60.50;99736.72;4982859;28;20215;-77
2022/06/30 07:32:51;;;;;;;3.58;2.72;;;;;;;35.70;60.04;99741.66;4983622;28;20232;-75
2022/06/30 07:35:16;;;;;;;5.15;3.08;;;;;;;35.48;60.56;99743.50;4982531;28;20821;-76
2022/06/30 07:37:41;;;;;;;4.65;3.00;;;;;;;35.52;60.97;99744.78;4983158;28;20177;-76
2022/06/30 07:40:08;;;;;;;2.85;2.58;;;;;;;35.59;60.98;99744.84;4986627;28;20185;-77
2022/06/30 07:42:33;;;;;;;3.45;2.50;;;;;;;35.55;60.97;99741.69;4987502;28;20766;-77
2022/06/30 07:44:59;;;;;;;4.85;2.70;;;;;;;35.25;60.00;99734.53;4983693;28;20213;-76
2022/06/30 07:47:25;;;;;;;4.30;2.60;;;;;;;35.25;60.50;99731.00;4986823;28;20177;-75
2022/06/30 07:49:51;;;;;;;4.15;2.78;;;;;;;35.11;60.23;99732.72;5000873;28;20204;-78
2022/06/30 07:52:16;;;;;;;4.05;2.55;;;;;;;35.06;60.11;99735.97;4986928;28;20239;-78
2022/06/30 07:54:41;;;;;;;2.83;2.58;;;;;;;34.81;59.71;99738.09;4986478;28;20211;-76
2022/06/30 07:57:08;;;;;;;2.67;2.47;;;;;;;34.60;60.21;99730.78;5004171;28;20189;-77
2022/06/30 07:59:34;;;;;;;3.03;2.67;;;;;;;34.49;61.06;99727.50;4998334;28;20194;-76
2022/06/30 08:02:00;;;;;;;2.70;2.50;;;;;;;34.47;60.91;99728.72;4986023;28;20189;-76
2022/06/30 08:04:27;;;;;;;3.80;2.83;;;;;;;34.22;61.27;99722.72;4984702;28;20205;-75
2022/06/30 08:06:52;;;;;;;4.90;3.10;;;;;;;33.92;62.17;99719.97;4982617;28;20211;-75
2022/06/30 08:09:19;;;;;;;3.15;2.80;;;;;;;33.85;62.99;99720.66;4987157;28;20852;-76
2022/06/30 08:11:44;;;;;;;3.75;2.95;;;;;;;33.71;63.42;99718.78;4985154;28;20624;-77
2022/06/30 08:14:10;;;;;;;3.35;3.05;;;;;;;33.40;64.19;99717.78;4985222;28;20235;-77
2022/06/30 08:16:35;;;;;;;3.53;3.22;;;;;;;33.27;65.11;99720.19;5000982;22;20317;-77
2022/06/30 08:19:01;;;;;;;6.28;3.28;;;;;;;33.01;65.10;99709.75;4957402;28;20276;-77
2022/06/30 08:21:26;;;;;;;3.30;3.10;;;;;;;32.97;65.38;99706.59;4981040;28;20182;-77
2022/06/30 08:23:52;;;;;;;4.97;3.38;;;;;;;32.55;65.88;99703.19;4966764;28;20256;-77
2022/06/30 08:26:19;;;;;;;5.25;3.42;;;;;;;32.16;67.22;99704.72;4964135;28;20190;-76
2022/06/30 08:28:44;;;;;;;3.55;2.92;;;;;;;32.00;67.61;99700.25;4964969;28;20181;-77
2022/06/30 08:31:10;;;;;;;4.50;3.25;;;;;;;31.96;68.09;99695.41;4956275;28;20558;-77
2022/06/30 08:33:35;;;;;;;3.30;3.10;;;;;;;31.91;67.95;99693.22;4963051;28;20185;-77
2022/06/30 08:36:00;;;;;;;4.55;3.20;;;;;;;31.86;68.11;99690.22;4958541;28;20734;-79
2022/06/30 08:38:27;;;;;;;4.25;3.20;;;;;;;31.82;68.63;99696.91;4952701;28;20627;-75
2022/06/30 08:43:38;;;;;;;4.23;3.83;;;;;;;31.43;69.50;99692.97;4961489;28;20308;-76
2022/06/30 08:46:03;;;;;;;3.60;3.30;;;;;;;31.38;70.15;99695.31;4952274;28;20280;-77
2022/06/30 08:48:29;;;;;;;4.43;3.27;;;;;;;31.23;70.15;99685.28;4975722;28;20186;-77
2022/06/30 08:51:03;;;;;;;3.97;3.00;;;;;;;31.19;70.46;99685.72;4963873;28;20213;-76
2022/06/30 08:53:37;;;;;;;3.40;3.10;;;;;;;30.98;70.02;99695.84;4967336;28;20288;-75
2022/06/30 08:56:04;;;;;;;4.97;3.50;;;;;;;30.75;69.90;99684.88;4955016;28;20185;-78
2022/06/30 08:58:30;;;;;;;3.43;3.10;;;;;;;30.58;70.29;99683.97;4955550;28;22107;-77
2022/06/30 09:00:55;;;;;;;4.53;3.47;;;;;;;30.47;70.99;99678.88;4961276;28;20178;-76
2022/06/30 09:03:21;;;;;;;3.20;2.90;;;;;;;30.30;71.29;99673.44;4957219;28;20719;-78
2022/06/30 09:05:46;;;;;;;3.33;3.03;;;;;;;30.31;71.67;99680.47;4959973;28;20243;-77
2022/06/30 09:08:17;;;;;;;5.83;3.20;;;;;;;30.27;71.88;99677.25;4956993;28;20182;-76
2022/06/30 09:10:50;;;;;;;3.17;2.83;;;;;;;30.27;71.76;99681.75;4960508;28;20206;-78
2022/06/30 09:13:15;;;;;;;12.70;4.70;;;;;;;30.17;71.99;99673.03;4972327;28;20182;-77
2022/06/30 09:15:41;;;;;;;15.77;5.40;;;;;;;30.09;71.46;99671.97;4975985;28;20213;-77
2022/06/30 09:18:07;;;;;;;6.73;3.43;;;;;;;30.19;71.70;99669.19;4958389;28;20194;-78
2022/06/30 09:20:38;;;;;;;6.07;3.47;;;;;;;30.25;71.60;99667.72;4962398;28;20285;-77
2022/06/30 09:23:23;;;;;;;3.33;2.97;;;;;;;30.23;71.87;99665.22;4965496;28;20187;-77
2022/06/30 09:26:02;;;;;;;3.93;3.53;;;;;;;30.17;72.08;99670.38;4963532;28;20260;-77
2022/06/30 09:28:44;;;;;;;3.63;3.30;;;;;;;30.15;71.70;99664.34;4957390;28;20265;-77
2022/06/30 09:31:12;;;;;;;4.17;3.20;;;;;;;30.14;71.51;99658.16;4966597;28;20281;-76
2022/06/30 09:33:39;;;;;;;4.93;3.30;;;;;;;30.16;71.18;99664.19;4962669;28;20199;-77
2022/06/30 09:36:26;;;;;;;3.70;3.40;;;;;;;30.31;70.75;99660.94;4963122;28;20184;-77
2022/06/30 09:38:59;;;;;;;3.73;2.70;;;;;;;30.45;70.55;99651.50;4962583;28;20178;-77
2022/06/30 09:41:30;;;;;;;3.17;2.97;;;;;;;30.47;69.53;99645.00;4953360;28;20193;-77
2022/06/30 09:43:56;;;;;;;3.47;3.10;;;;;;;30.55;69.01;99645.06;4957364;28;20189;-77
2022/06/30 09:46:21;;;;;;;3.83;3.53;;;;;;;30.55;68.86;99645.06;4960570;28;20177;-77
2022/06/30 09:48:47;;;;;;;3.50;3.20;;;;;;;30.55;68.76;99644.25;4960150;28;20190;-78
2022/06/30 09:51:12;;;;;;;3.70;3.40;;;;;;;30.62;68.68;99637.28;4956592;28;20198;-77
2022/06/30 09:53:38;;;;;;;4.47;3.00;;;;;;;30.74;68.37;99636.97;4962298;28;20189;-77
2022/06/30 09:56:12;;;;;;;3.43;3.13;;;;;;;30.81;68.41;99632.66;4964173;28;20209;-75
2022/06/30 09:58:41;;;;;;;3.57;3.20;;;;;;;30.89;67.80;99638.03;4961739;28;20712;-76
2022/06/30 10:01:06;;;;;;;3.73;3.43;;;;;;;30.94;67.60;99635.69;4958468;28;20214;-76
2022/06/30 10:03:31;;;;;;;4.00;3.37;;;;;;;30.97;67.63;99637.22;4963692;28;20206;-76
2022/06/30 10:06:12;;;;;;;3.77;2.80;;;;;;;31.04;67.94;99626.72;4960209;28;20293;-76
2022/06/30 10:08:38;;;;;;;3.77;3.27;;;;;;;31.18;67.33;99623.44;4957723;28;20299;-76
2022/06/30 10:11:04;;;;;;;3.50;3.20;;;;;;;31.27;66.39;99624.28;4973920;28;20717;-77
2022/06/30 10:13:37;;;;;;;3.53;3.27;;;;;;;31.24;66.73;99620.09;4965007;28;20178;-77
2022/06/30 10:16:05;;;;;;;4.03;3.67;;;;;;;31.30;66.68;99616.78;4966895;28;20209;-77
2022/06/30 10:18:35;;;;;;;4.25;3.85;;;;;;;31.22;66.11;99615.94;4964211;28;20189;-77
2022/06/30 10:21:01;;;;;;;3.55;3.25;;;;;;;31.15;66.85;99613.94;4969203;28;20183;-76
2022/06/30 10:23:26;;;;;;;4.82;3.78;;;;;;;31.08;67.13;99612.88;4960336;28;20190;-76
2022/06/30 10:25:54;;;;;;;4.63;3.50;;;;;;;31.23;67.18;99612.25;4968472;28;22246;-76
2022/06/30 10:28:22;;;;;;;4.22;3.72;;;;;;;30.92;67.02;99608.34;4961448;28;20816;-76
2022/06/30 10:30:57;;;;;;;4.20;3.80;;;;;;;31.12;67.11;99611.53;4959939;28;20202;-75
2022/06/30 10:34:00;;;;;;;3.72;3.53;;;;;;;31.40;68.16;99618.44;4961460;28;20181;-77
2022/06/30 10:36:50;;;;;;;3.67;3.38;;;;;;;31.68;67.38;99623.50;4958607;28;20201;-75
2022/06/30 10:39:37;;;;;;;5.53;4.13;;;;;;;31.73;66.53;99632.72;4958999;28;21311;-74
2022/06/30 10:42:02;;;;;;;3.97;3.67;;;;;;;31.65;66.84;99629.16;4955178;28;20190;-77
2022/06/30 10:44:29;;;;;;;3.35;3.15;;;;;;;31.60;66.93;99622.47;4963641;28;20201;-74
2022/06/30 10:46:57;;;;;;;3.75;3.53;;;;;;;31.57;66.39;99622.78;4962206;28;20277;-74
2022/06/30 10:49:28;;;;;;;4.65;3.22;;;;;;;31.68;65.84;99620.81;4962902;28;20182;-74
2022/06/30 10:52:16;;;;;;;3.63;3.33;;;;;;;31.71;66.22;99615.13;4959829;28;22160;-75
2022/06/30 10:54:45;;;;;;;3.30;3.00;;;;;;;31.84;66.20;99615.44;4975711;28;20206;-76
2022/06/30 10:57:12;;;;;;;4.07;3.38;;;;;;;31.90;67.00;99605.94;4960617;28;20201;-76
2022/06/30 10:59:42;;;;;;;4.63;3.38;;;;;;;31.95;65.68;99603.56;4964127;28;20285;-75
2022/06/30 11:02:10;;;;;;;3.00;2.80;;;;;;;31.97;66.30;99590.03;4955343;28;20170;-76
2022/06/30 11:04:38;;;;;;;2.92;2.72;;;;;;;32.02;65.76;99593.03;4963738;28;20213;-76
2022/06/30 11:07:14;;;;;;;3.75;3.42;;;;;;;31.99;65.81;99582.69;4973539;28;20221;-75
2022/06/30 11:09:49;;;;;;;3.35;3.05;;;;;;;31.99;65.07;99588.84;4959241;28;20714;-75
2022/06/30 11:12:20;;;;;;;3.58;3.28;;;;;;;31.86;65.56;99585.88;4972884;28;20664;-75
2022/06/30 11:14:50;;;;;;;3.38;3.08;;;;;;;31.84;66.30;99590.56;4956865;28;20242;-76
2022/06/30 11:17:18;;;;;;;7.38;3.78;;;;;;;31.75;66.61;99587.06;4963618;28;20182;-76
2022/06/30 11:19:44;;;;;;;5.45;3.85;;;;;;;31.76;65.67;99592.25;4960683;28;20675;-76
2022/06/30 11:22:17;;;;;;;7.65;3.60;;;;;;;31.75;65.71;99587.91;4965104;28;20212;-75
2022/06/30 11:24:48;;;;;;;3.63;3.20;;;;;;;31.58;65.68;99586.22;4956939;28;20206;-76
2022/06/30 11:27:25;;;;;;;4.03;3.50;;;;;;;31.58;66.20;99586.22;4965031;28;20192;-74
2022/06/30 11:30:09;;;;;;;4.40;2.70;;;;;;;31.67;65.98;99581.69;4962611;28;20588;-76
2022/06/30 11:32:35;;;;;;;3.58;3.15;;;;;;;31.72;66.63;99577.53;4964221;28;20348;-74
2022/06/30 11:35:01;;;;;;;6.47;3.70;;;;;;;31.73;64.68;99573.88;4964787;28;20206;-76
2022/06/30 11:37:30;;;;;;;3.90;3.50;;;;;;;31.67;65.81;99573.69;4962065;28;20189;-74
2022/06/30 11:40:03;;;;;;;5.00;3.70;;;;;;;31.53;65.60;99572.50;4952822;28;20187;-75
2022/06/30 11:42:28;;;;;;;3.38;3.08;;;;;;;31.64;65.17;99569.47;4955618;28;20217;-75